sensor_id;sensor_type;location;lat;lon;timestamp;P1;durP1;ratioP1;P2;durP2;ratioP2
4642;SDS011;2334;48.710;9.622;2024-01-10T00:01:16;21.00;;;8.70;;
4642;SDS011;2334;48.710;9.622;2024-01-10T00:03:43;21.10;;;8.93;;
4642;SDS011;2334;48.710;9.622;2024-01-10T00:06:10;25.17;;;9.90;;
4642;SDS011;2334;48.710;9.622;2024-01-10T00:08:37;16.13;;;7.37;;
4642;SDS011;2334;48.710;9.622;2024-01-10T00:11:04;16.20;;;7.07;;
4642;SDS011;2334;48.710;9.622;2024-01-10T00:13:31;14.23;;;8.30;;
4642;SDS011;2334;48.710;9.622;2024-01-10T00:16:00;20.33;;;9.13;;
4642;SDS011;2334;48.710;9.622;2024-01-10T00:18:27;17.63;;;9.50;;
4642;SDS011;2334;48.710;9.622;2024-01-10T00:20:54;14.90;;;9.40;;
4642;SDS011;2334;48.710;9.622;2024-01-10T00:23:21;28.40;;;10.80;;
4642;SDS011;2334;48.710;9.622;2024-01-10T00:25:48;28.13;;;11.07;;
4642;SDS011;2334;48.710;9.622;2024-01-10T00:28:15;25.90;;;10.37;;
4642;SDS011;2334;48.710;9.622;2024-01-10T00:30:43;25.57;;;10.97;;
4642;SDS011;2334;48.710;9.622;2024-01-10T00:33:11;22.57;;;10.10;;
4642;SDS011;2334;48.710;9.622;2024-01-10T00:35:38;27.67;;;10.53;;
4642;SDS011;2334;48.710;9.622;2024-01-10T00:38:05;24.00;;;10.70;;
4642;SDS011;2334;48.710;9.622;2024-01-10T00:40:32;26.77;;;12.50;;
4642;SDS011;2334;48.710;9.622;2024-01-10T00:42:58;24.23;;;10.60;;
4642;SDS011;2334;48.710;9.622;2024-01-10T00:45:25;23.13;;;9.80;;
4642;SDS011;2334;48.710;9.622;2024-01-10T00:47:52;22.97;;;10.00;;
4642;SDS011;2334;48.710;9.622;2024-01-10T00:50:20;21.20;;;9.63;;
4642;SDS011;2334;48.710;9.622;2024-01-10T00:52:47;17.60;;;9.73;;
4642;SDS011;2334;48.710;9.622;2024-01-10T00:55:14;22.43;;;10.43;;
4642;SDS011;2334;48.710;9.622;2024-01-10T00:57:41;17.23;;;9.40;;
4642;SDS011;2334;48.710;9.622;2024-01-10T01:00:08;24.27;;;8.97;;
4642;SDS011;2334;48.710;9.622;2024-01-10T01:02:36;23.30;;;10.50;;
4642;SDS011;2334;48.710;9.622;2024-01-10T01:05:04;18.57;;;8.30;;
4642;SDS011;2334;48.710;9.622;2024-01-10T01:07:33;21.97;;;9.27;;
4642;SDS011;2334;48.710;9.622;2024-01-10T01:10:01;18.57;;;8.17;;
4642;SDS011;2334;48.710;9.622;2024-01-10T01:12:28;23.90;;;8.97;;
4642;SDS011;2334;48.710;9.622;2024-01-10T01:14:55;16.87;;;8.07;;
4642;SDS011;2334;48.710;9.622;2024-01-10T01:17:22;9.50;;;5.60;;
4642;SDS011;2334;48.710;9.622;2024-01-10T01:19:49;15.20;;;7.03;;
4642;SDS011;2334;48.710;9.622;2024-01-10T01:22:16;17.90;;;6.60;;
4642;SDS011;2334;48.710;9.622;2024-01-10T01:24:44;13.40;;;6.10;;
4642;SDS011;2334;48.710;9.622;2024-01-10T01:27:11;13.53;;;4.93;;
4642;SDS011;2334;48.710;9.622;2024-01-10T01:29:38;9.10;;;4.60;;
4642;SDS011;2334;48.710;9.622;2024-01-10T01:32:05;12.97;;;6.33;;
4642;SDS011;2334;48.710;9.622;2024-01-10T01:34:32;11.00;;;5.83;;
4642;SDS011;2334;48.710;9.622;2024-01-10T01:36:59;9.13;;;5.87;;
4642;SDS011;2334;48.710;9.622;2024-01-10T01:39:26;12.20;;;5.27;;
4642;SDS011;2334;48.710;9.622;2024-01-10T01:41:56;9.87;;;5.50;;
4642;SDS011;2334;48.710;9.622;2024-01-10T01:44:23;8.93;;;5.03;;
4642;SDS011;2334;48.710;9.622;2024-01-10T01:46:50;8.93;;;5.60;;
4642;SDS011;2334;48.710;9.622;2024-01-10T01:49:17;11.77;;;6.70;;
4642;SDS011;2334;48.710;9.622;2024-01-10T01:51:45;18.53;;;6.73;;
4642;SDS011;2334;48.710;9.622;2024-01-10T01:54:12;12.87;;;5.13;;
4642;SDS011;2334;48.710;9.622;2024-01-10T01:56:39;11.50;;;6.20;;
4642;SDS011;2334;48.710;9.622;2024-01-10T01:59:08;10.30;;;4.40;;
4642;SDS011;2334;48.710;9.622;2024-01-10T02:01:35;10.40;;;4.87;;
4642;SDS011;2334;48.710;9.622;2024-01-10T02:04:02;17.60;;;6.50;;
4642;SDS011;2334;48.710;9.622;2024-01-10T02:06:29;13.53;;;4.90;;
4642;SDS011;2334;48.710;9.622;2024-01-10T02:08:56;12.50;;;5.57;;
4642;SDS011;2334;48.710;9.622;2024-01-10T02:11:23;12.97;;;6.80;;
4642;SDS011;2334;48.710;9.622;2024-01-10T02:13:51;10.03;;;4.30;;
4642;SDS011;2334;48.710;9.622;2024-01-10T02:16:21;13.30;;;6.27;;
4642;SDS011;2334;48.710;9.622;2024-01-10T02:18:49;6.93;;;4.40;;
4642;SDS011;2334;48.710;9.622;2024-01-10T02:21:16;14.90;;;6.70;;
4642;SDS011;2334;48.710;9.622;2024-01-10T02:23:46;10.40;;;4.90;;
4642;SDS011;2334;48.710;9.622;2024-01-10T02:26:15;13.33;;;5.40;;
4642;SDS011;2334;48.710;9.622;2024-01-10T02:28:42;12.00;;;5.97;;
4642;SDS011;2334;48.710;9.622;2024-01-10T02:31:09;10.60;;;5.87;;
4642;SDS011;2334;48.710;9.622;2024-01-10T02:33:36;17.93;;;6.43;;
4642;SDS011;2334;48.710;9.622;2024-01-10T02:36:03;9.20;;;5.30;;
4642;SDS011;2334;48.710;9.622;2024-01-10T02:38:31;13.30;;;5.60;;
4642;SDS011;2334;48.710;9.622;2024-01-10T02:40:57;21.77;;;6.80;;
4642;SDS011;2334;48.710;9.622;2024-01-10T02:43:28;14.50;;;6.20;;
4642;SDS011;2334;48.710;9.622;2024-01-10T02:45:55;9.93;;;5.50;;
4642;SDS011;2334;48.710;9.622;2024-01-10T02:48:23;10.50;;;5.13;;
4642;SDS011;2334;48.710;9.622;2024-01-10T02:50:50;21.07;;;6.30;;
4642;SDS011;2334;48.710;9.622;2024-01-10T02:53:19;16.30;;;5.40;;
4642;SDS011;2334;48.710;9.622;2024-01-10T02:55:46;11.37;;;5.20;;
4642;SDS011;2334;48.710;9.622;2024-01-10T02:58:14;21.80;;;5.47;;
4642;SDS011;2334;48.710;9.622;2024-01-10T03:00:43;12.43;;;5.97;;
4642;SDS011;2334;48.710;9.622;2024-01-10T03:03:09;14.07;;;7.00;;
4642;SDS011;2334;48.710;9.622;2024-01-10T03:05:37;12.00;;;6.00;;
4642;SDS011;2334;48.710;9.622;2024-01-10T03:08:04;10.97;;;5.43;;
4642;SDS011;2334;48.710;9.622;2024-01-10T03:10:32;15.93;;;6.87;;
4642;SDS011;2334;48.710;9.622;2024-01-10T03:12:58;9.10;;;4.90;;
4642;SDS011;2334;48.710;9.622;2024-01-10T03:15:25;10.43;;;5.67;;
4642;SDS011;2334;48.710;9.622;2024-01-10T03:17:53;16.67;;;7.00;;
4642;SDS011;2334;48.710;9.622;2024-01-10T03:20:20;6.60;;;5.27;;
4642;SDS011;2334;48.710;9.622;2024-01-10T03:22:47;9.33;;;4.97;;
4642;SDS011;2334;48.710;9.622;2024-01-10T03:25:14;10.40;;;5.97;;
4642;SDS011;2334;48.710;9.622;2024-01-10T03:27:41;11.10;;;5.67;;
4642;SDS011;2334;48.710;9.622;2024-01-10T03:30:08;9.10;;;5.47;;
4642;SDS011;2334;48.710;9.622;2024-01-10T03:32:35;12.70;;;4.50;;
4642;SDS011;2334;48.710;9.622;2024-01-10T03:35:04;13.90;;;6.97;;
4642;SDS011;2334;48.710;9.622;2024-01-10T03:37:32;10.27;;;5.33;;
4642;SDS011;2334;48.710;9.622;2024-01-10T03:40:00;12.20;;;5.87;;
4642;SDS011;2334;48.710;9.622;2024-01-10T03:42:26;11.37;;;5.00;;
4642;SDS011;2334;48.710;9.622;2024-01-10T03:44:53;17.80;;;5.43;;
4642;SDS011;2334;48.710;9.622;2024-01-10T03:47:20;7.60;;;4.83;;
4642;SDS011;2334;48.710;9.622;2024-01-10T03:49:47;15.70;;;7.27;;
4642;SDS011;2334;48.710;9.622;2024-01-10T03:52:15;11.87;;;7.07;;
4642;SDS011;2334;48.710;9.622;2024-01-10T03:54:42;10.63;;;5.30;;
4642;SDS011;2334;48.710;9.622;2024-01-10T03:57:09;12.60;;;5.10;;
4642;SDS011;2334;48.710;9.622;2024-01-10T03:59:36;10.07;;;5.13;;
4642;SDS011;2334;48.710;9.622;2024-01-10T04:02:03;14.20;;;6.10;;
4642;SDS011;2334;48.710;9.622;2024-01-10T04:04:29;12.90;;;6.10;;
4642;SDS011;2334;48.710;9.622;2024-01-10T04:06:57;13.70;;;7.00;;
4642;SDS011;2334;48.710;9.622;2024-01-10T04:09:25;8.17;;;5.93;;
4642;SDS011;2334;48.710;9.622;2024-01-10T04:11:52;10.67;;;5.50;;
4642;SDS011;2334;48.710;9.622;2024-01-10T04:14:18;11.67;;;5.47;;
4642;SDS011;2334;48.710;9.622;2024-01-10T04:16:45;8.67;;;4.87;;
4642;SDS011;2334;48.710;9.622;2024-01-10T04:19:13;15.27;;;6.50;;
4642;SDS011;2334;48.710;9.622;2024-01-10T04:21:40;9.77;;;5.80;;
4642;SDS011;2334;48.710;9.622;2024-01-10T04:24:07;10.00;;;5.30;;
4642;SDS011;2334;48.710;9.622;2024-01-10T04:26:35;11.00;;;6.30;;
4642;SDS011;2334;48.710;9.622;2024-01-10T04:29:02;9.43;;;5.80;;
4642;SDS011;2334;48.710;9.622;2024-01-10T04:31:29;14.20;;;6.40;;
4642;SDS011;2334;48.710;9.622;2024-01-10T04:33:56;11.50;;;5.53;;
4642;SDS011;2334;48.710;9.622;2024-01-10T04:36:23;11.30;;;5.80;;
4642;SDS011;2334;48.710;9.622;2024-01-10T04:38:50;11.40;;;5.80;;
4642;SDS011;2334;48.710;9.622;2024-01-10T04:41:17;11.17;;;5.40;;
4642;SDS011;2334;48.710;9.622;2024-01-10T04:43:45;17.03;;;7.23;;
4642;SDS011;2334;48.710;9.622;2024-01-10T04:46:12;13.50;;;5.90;;
4642;SDS011;2334;48.710;9.622;2024-01-10T04:48:39;12.03;;;6.30;;
4642;SDS011;2334;48.710;9.622;2024-01-10T04:51:06;10.30;;;5.97;;
4642;SDS011;2334;48.710;9.622;2024-01-10T04:53:33;14.23;;;6.00;;
4642;SDS011;2334;48.710;9.622;2024-01-10T04:56:00;11.90;;;7.50;;
4642;SDS011;2334;48.710;9.622;2024-01-10T04:58:27;12.00;;;5.93;;
4642;SDS011;2334;48.710;9.622;2024-01-10T05:00:56;17.43;;;6.07;;
4642;SDS011;2334;48.710;9.622;2024-01-10T05:03:23;11.80;;;7.00;;
4642;SDS011;2334;48.710;9.622;2024-01-10T05:05:50;12.60;;;6.57;;
4642;SDS011;2334;48.710;9.622;2024-01-10T05:08:17;12.37;;;6.60;;
4642;SDS011;2334;48.710;9.622;2024-01-10T05:10:45;15.20;;;7.07;;
4642;SDS011;2334;48.710;9.622;2024-01-10T05:13:12;13.93;;;6.57;;
4642;SDS011;2334;48.710;9.622;2024-01-10T05:15:39;13.53;;;6.20;;
4642;SDS011;2334;48.710;9.622;2024-01-10T05:18:07;9.93;;;5.30;;
4642;SDS011;2334;48.710;9.622;2024-01-10T05:20:35;10.50;;;5.60;;
4642;SDS011;2334;48.710;9.622;2024-01-10T05:23:02;13.20;;;6.87;;
4642;SDS011;2334;48.710;9.622;2024-01-10T05:25:31;20.80;;;7.57;;
4642;SDS011;2334;48.710;9.622;2024-01-10T05:27:58;14.53;;;6.50;;
4642;SDS011;2334;48.710;9.622;2024-01-10T05:30:25;19.27;;;8.83;;
4642;SDS011;2334;48.710;9.622;2024-01-10T05:32:51;17.47;;;8.57;;
4642;SDS011;2334;48.710;9.622;2024-01-10T05:35:19;14.73;;;6.93;;
4642;SDS011;2334;48.710;9.622;2024-01-10T05:37:45;18.73;;;5.90;;
4642;SDS011;2334;48.710;9.622;2024-01-10T05:40:12;13.60;;;6.73;;
4642;SDS011;2334;48.710;9.622;2024-01-10T05:42:39;13.83;;;5.73;;
4642;SDS011;2334;48.710;9.622;2024-01-10T05:45:06;14.70;;;6.57;;
4642;SDS011;2334;48.710;9.622;2024-01-10T05:47:34;20.50;;;10.60;;
4642;SDS011;2334;48.710;9.622;2024-01-10T05:50:01;15.83;;;6.60;;
4642;SDS011;2334;48.710;9.622;2024-01-10T05:52:32;13.60;;;8.03;;
4642;SDS011;2334;48.710;9.622;2024-01-10T05:54:59;13.53;;;8.30;;
4642;SDS011;2334;48.710;9.622;2024-01-10T05:57:27;20.37;;;8.23;;
4642;SDS011;2334;48.710;9.622;2024-01-10T05:59:55;12.80;;;7.43;;
4642;SDS011;2334;48.710;9.622;2024-01-10T06:02:22;18.93;;;7.87;;
4642;SDS011;2334;48.710;9.622;2024-01-10T06:04:49;11.50;;;7.60;;
4642;SDS011;2334;48.710;9.622;2024-01-10T06:07:16;16.37;;;6.67;;
4642;SDS011;2334;48.710;9.622;2024-01-10T06:09:44;17.80;;;7.10;;
4642;SDS011;2334;48.710;9.622;2024-01-10T06:12:11;18.17;;;6.30;;
4642;SDS011;2334;48.710;9.622;2024-01-10T06:14:38;13.90;;;6.90;;
4642;SDS011;2334;48.710;9.622;2024-01-10T06:17:05;12.60;;;7.27;;
4642;SDS011;2334;48.710;9.622;2024-01-10T06:19:32;16.47;;;8.90;;
4642;SDS011;2334;48.710;9.622;2024-01-10T06:21:59;16.30;;;6.57;;
4642;SDS011;2334;48.710;9.622;2024-01-10T06:24:26;16.70;;;7.40;;
4642;SDS011;2334;48.710;9.622;2024-01-10T06:26:54;16.47;;;9.13;;
4642;SDS011;2334;48.710;9.622;2024-01-10T06:29:21;24.67;;;9.13;;
4642;SDS011;2334;48.710;9.622;2024-01-10T06:31:48;21.97;;;7.70;;
4642;SDS011;2334;48.710;9.622;2024-01-10T06:34:14;17.80;;;8.73;;
4642;SDS011;2334;48.710;9.622;2024-01-10T06:36:41;16.13;;;7.70;;
4642;SDS011;2334;48.710;9.622;2024-01-10T06:39:09;21.67;;;8.80;;
4642;SDS011;2334;48.710;9.622;2024-01-10T06:41:37;17.17;;;8.20;;
4642;SDS011;2334;48.710;9.622;2024-01-10T06:44:06;13.57;;;7.50;;
4642;SDS011;2334;48.710;9.622;2024-01-10T06:46:33;12.93;;;6.40;;
4642;SDS011;2334;48.710;9.622;2024-01-10T06:49:00;20.07;;;8.57;;
4642;SDS011;2334;48.710;9.622;2024-01-10T06:51:26;20.73;;;7.83;;
4642;SDS011;2334;48.710;9.622;2024-01-10T06:53:53;21.10;;;8.27;;
4642;SDS011;2334;48.710;9.622;2024-01-10T06:56:27;20.90;;;7.23;;
4642;SDS011;2334;48.710;9.622;2024-01-10T06:58:54;22.37;;;10.93;;
4642;SDS011;2334;48.710;9.622;2024-01-10T07:01:23;25.60;;;9.73;;
4642;SDS011;2334;48.710;9.622;2024-01-10T07:03:50;20.60;;;8.83;;
4642;SDS011;2334;48.710;9.622;2024-01-10T07:06:17;18.13;;;8.73;;
4642;SDS011;2334;48.710;9.622;2024-01-10T07:08:44;28.00;;;8.90;;
4642;SDS011;2334;48.710;9.622;2024-01-10T07:11:11;16.87;;;8.63;;
4642;SDS011;2334;48.710;9.622;2024-01-10T07:13:38;20.63;;;9.03;;
4642;SDS011;2334;48.710;9.622;2024-01-10T07:16:09;21.47;;;9.67;;
4642;SDS011;2334;48.710;9.622;2024-01-10T07:18:41;13.03;;;8.50;;
4642;SDS011;2334;48.710;9.622;2024-01-10T07:21:08;17.57;;;8.77;;
4642;SDS011;2334;48.710;9.622;2024-01-10T07:23:35;17.53;;;8.33;;
4642;SDS011;2334;48.710;9.622;2024-01-10T07:26:03;18.47;;;8.90;;
4642;SDS011;2334;48.710;9.622;2024-01-10T07:28:30;13.63;;;7.30;;
4642;SDS011;2334;48.710;9.622;2024-01-10T07:30:57;18.33;;;7.33;;
4642;SDS011;2334;48.710;9.622;2024-01-10T07:33:25;21.00;;;9.80;;
4642;SDS011;2334;48.710;9.622;2024-01-10T07:35:53;20.23;;;9.60;;
4642;SDS011;2334;48.710;9.622;2024-01-10T07:38:20;22.47;;;10.53;;
4642;SDS011;2334;48.710;9.622;2024-01-10T07:40:47;19.90;;;7.90;;
4642;SDS011;2334;48.710;9.622;2024-01-10T07:43:14;21.57;;;9.67;;
4642;SDS011;2334;48.710;9.622;2024-01-10T07:45:41;28.13;;;11.90;;
4642;SDS011;2334;48.710;9.622;2024-01-10T07:48:08;18.87;;;8.67;;
4642;SDS011;2334;48.710;9.622;2024-01-10T07:50:36;24.13;;;10.80;;
4642;SDS011;2334;48.710;9.622;2024-01-10T07:53:04;27.50;;;11.87;;
4642;SDS011;2334;48.710;9.622;2024-01-10T07:55:32;18.43;;;8.90;;
4642;SDS011;2334;48.710;9.622;2024-01-10T07:57:59;17.73;;;9.20;;
4642;SDS011;2334;48.710;9.622;2024-01-10T08:00:26;24.57;;;8.50;;
4642;SDS011;2334;48.710;9.622;2024-01-10T08:02:55;31.67;;;11.63;;
4642;SDS011;2334;48.710;9.622;2024-01-10T08:05:23;24.40;;;8.93;;
4642;SDS011;2334;48.710;9.622;2024-01-10T08:07:50;18.20;;;9.30;;
4642;SDS011;2334;48.710;9.622;2024-01-10T08:10:18;21.80;;;7.70;;
4642;SDS011;2334;48.710;9.622;2024-01-10T08:12:45;20.53;;;9.80;;
4642;SDS011;2334;48.710;9.622;2024-01-10T08:15:12;22.57;;;9.63;;
4642;SDS011;2334;48.710;9.622;2024-01-10T08:17:40;17.10;;;8.33;;
4642;SDS011;2334;48.710;9.622;2024-01-10T08:20:07;21.50;;;9.67;;
4642;SDS011;2334;48.710;9.622;2024-01-10T08:22:35;20.17;;;10.57;;
4642;SDS011;2334;48.710;9.622;2024-01-10T08:25:03;22.33;;;9.63;;
4642;SDS011;2334;48.710;9.622;2024-01-10T08:27:32;16.70;;;9.67;;
4642;SDS011;2334;48.710;9.622;2024-01-10T08:30:00;24.10;;;9.53;;
4642;SDS011;2334;48.710;9.622;2024-01-10T08:32:29;23.47;;;10.83;;
4642;SDS011;2334;48.710;9.622;2024-01-10T08:34:56;20.83;;;7.90;;
4642;SDS011;2334;48.710;9.622;2024-01-10T08:37:24;24.93;;;10.53;;
4642;SDS011;2334;48.710;9.622;2024-01-10T08:39:50;16.73;;;9.40;;
4642;SDS011;2334;48.710;9.622;2024-01-10T08:42:17;24.57;;;10.37;;
4642;SDS011;2334;48.710;9.622;2024-01-10T08:44:46;27.40;;;10.93;;
4642;SDS011;2334;48.710;9.622;2024-01-10T08:47:14;17.93;;;9.47;;
4642;SDS011;2334;48.710;9.622;2024-01-10T08:49:41;17.83;;;9.27;;
4642;SDS011;2334;48.710;9.622;2024-01-10T08:52:08;18.57;;;8.70;;
4642;SDS011;2334;48.710;9.622;2024-01-10T08:54:35;22.47;;;10.67;;
4642;SDS011;2334;48.710;9.622;2024-01-10T08:57:02;18.33;;;9.47;;
4642;SDS011;2334;48.710;9.622;2024-01-10T08:59:29;21.40;;;10.00;;
4642;SDS011;2334;48.710;9.622;2024-01-10T09:01:57;20.67;;;10.20;;
4642;SDS011;2334;48.710;9.622;2024-01-10T09:04:24;20.00;;;10.00;;
4642;SDS011;2334;48.710;9.622;2024-01-10T09:06:52;20.83;;;10.30;;
4642;SDS011;2334;48.710;9.622;2024-01-10T09:09:18;18.77;;;9.63;;
4642;SDS011;2334;48.710;9.622;2024-01-10T09:11:45;27.97;;;10.10;;
4642;SDS011;2334;48.710;9.622;2024-01-10T09:14:13;23.43;;;10.80;;
4642;SDS011;2334;48.710;9.622;2024-01-10T09:16:40;18.40;;;10.90;;
4642;SDS011;2334;48.710;9.622;2024-01-10T09:19:08;23.33;;;10.73;;
4642;SDS011;2334;48.710;9.622;2024-01-10T09:21:35;20.10;;;11.00;;
4642;SDS011;2334;48.710;9.622;2024-01-10T09:24:03;27.93;;;12.10;;
4642;SDS011;2334;48.710;9.622;2024-01-10T09:26:33;25.07;;;11.37;;
4642;SDS011;2334;48.710;9.622;2024-01-10T09:29:00;23.27;;;10.97;;
4642;SDS011;2334;48.710;9.622;2024-01-10T09:31:27;19.17;;;10.67;;
4642;SDS011;2334;48.710;9.622;2024-01-10T09:33:54;25.43;;;11.47;;
4642;SDS011;2334;48.710;9.622;2024-01-10T09:36:23;29.67;;;9.67;;
4642;SDS011;2334;48.710;9.622;2024-01-10T09:38:50;25.87;;;11.97;;
4642;SDS011;2334;48.710;9.622;2024-01-10T09:41:19;24.67;;;11.37;;
4642;SDS011;2334;48.710;9.622;2024-01-10T09:43:46;19.00;;;10.20;;
4642;SDS011;2334;48.710;9.622;2024-01-10T09:46:13;23.87;;;10.83;;
4642;SDS011;2334;48.710;9.622;2024-01-10T09:48:43;22.13;;;8.90;;
4642;SDS011;2334;48.710;9.622;2024-01-10T09:51:10;25.00;;;10.63;;
4642;SDS011;2334;48.710;9.622;2024-01-10T09:53:42;24.10;;;10.70;;
4642;SDS011;2334;48.710;9.622;2024-01-10T09:56:13;25.30;;;9.53;;
4642;SDS011;2334;48.710;9.622;2024-01-10T09:58:41;18.53;;;11.13;;
4642;SDS011;2334;48.710;9.622;2024-01-10T10:01:11;26.30;;;11.53;;
4642;SDS011;2334;48.710;9.622;2024-01-10T10:03:38;25.83;;;12.40;;
4642;SDS011;2334;48.710;9.622;2024-01-10T10:06:11;24.70;;;11.07;;
4642;SDS011;2334;48.710;9.622;2024-01-10T10:08:38;27.57;;;11.33;;
4642;SDS011;2334;48.710;9.622;2024-01-10T10:11:07;26.13;;;11.70;;
4642;SDS011;2334;48.710;9.622;2024-01-10T10:13:37;25.33;;;12.80;;
4642;SDS011;2334;48.710;9.622;2024-01-10T10:16:07;36.57;;;13.03;;
4642;SDS011;2334;48.710;9.622;2024-01-10T10:18:36;27.73;;;12.30;;
4642;SDS011;2334;48.710;9.622;2024-01-10T10:21:06;25.07;;;11.63;;
4642;SDS011;2334;48.710;9.622;2024-01-10T10:23:34;22.70;;;10.73;;
4642;SDS011;2334;48.710;9.622;2024-01-10T10:26:10;21.83;;;10.87;;
4642;SDS011;2334;48.710;9.622;2024-01-10T10:28:44;27.83;;;12.20;;
4642;SDS011;2334;48.710;9.622;2024-01-10T10:31:11;29.20;;;11.97;;
4642;SDS011;2334;48.710;9.622;2024-01-10T10:33:38;24.10;;;11.30;;
4642;SDS011;2334;48.710;9.622;2024-01-10T10:36:05;20.73;;;10.13;;
4642;SDS011;2334;48.710;9.622;2024-01-10T10:38:32;23.60;;;11.10;;
4642;SDS011;2334;48.710;9.622;2024-01-10T10:40:59;34.67;;;14.30;;
4642;SDS011;2334;48.710;9.622;2024-01-10T10:43:28;32.90;;;12.47;;
4642;SDS011;2334;48.710;9.622;2024-01-10T10:45:59;24.60;;;11.80;;
4642;SDS011;2334;48.710;9.622;2024-01-10T10:48:28;22.37;;;11.90;;
4642;SDS011;2334;48.710;9.622;2024-01-10T10:51:03;29.43;;;11.70;;
4642;SDS011;2334;48.710;9.622;2024-01-10T10:53:33;31.13;;;11.37;;
4642;SDS011;2334;48.710;9.622;2024-01-10T10:56:02;22.23;;;11.33;;
4642;SDS011;2334;48.710;9.622;2024-01-10T10:58:33;28.43;;;11.70;;
4642;SDS011;2334;48.710;9.622;2024-01-10T11:01:02;21.60;;;10.10;;
4642;SDS011;2334;48.710;9.622;2024-01-10T11:03:31;24.93;;;11.90;;
4642;SDS011;2334;48.710;9.622;2024-01-10T11:06:01;23.47;;;11.17;;
4642;SDS011;2334;48.710;9.622;2024-01-10T11:08:29;33.57;;;11.80;;
4642;SDS011;2334;48.710;9.622;2024-01-10T11:11:00;25.40;;;13.27;;
4642;SDS011;2334;48.710;9.622;2024-01-10T11:13:35;22.70;;;12.20;;
4642;SDS011;2334;48.710;9.622;2024-01-10T11:22:29;29.80;;;13.27;;
4642;SDS011;2334;48.710;9.622;2024-01-10T11:25:08;29.73;;;12.47;;
4642;SDS011;2334;48.710;9.622;2024-01-10T11:27:36;39.40;;;13.30;;
4642;SDS011;2334;48.710;9.622;2024-01-10T11:30:05;34.70;;;14.00;;
4642;SDS011;2334;48.710;9.622;2024-01-10T11:32:33;30.13;;;12.20;;
4642;SDS011;2334;48.710;9.622;2024-01-10T11:35:03;26.80;;;12.33;;
4642;SDS011;2334;48.710;9.622;2024-01-10T11:37:39;22.27;;;10.53;;
4642;SDS011;2334;48.710;9.622;2024-01-10T11:40:09;30.40;;;13.10;;
4642;SDS011;2334;48.710;9.622;2024-01-10T11:42:41;25.80;;;12.73;;
4642;SDS011;2334;48.710;9.622;2024-01-10T11:45:10;28.37;;;11.93;;
4642;SDS011;2334;48.710;9.622;2024-01-10T11:47:59;27.70;;;12.53;;
4642;SDS011;2334;48.710;9.622;2024-01-10T11:50:26;32.00;;;14.37;;
4642;SDS011;2334;48.710;9.622;2024-01-10T11:52:56;29.00;;;13.20;;
4642;SDS011;2334;48.710;9.622;2024-01-10T11:58:14;27.37;;;13.27;;
4642;SDS011;2334;48.710;9.622;2024-01-10T12:00:44;33.97;;;15.30;;
4642;SDS011;2334;48.710;9.622;2024-01-10T12:03:12;22.37;;;12.13;;
4642;SDS011;2334;48.710;9.622;2024-01-10T12:05:40;32.33;;;13.13;;
4642;SDS011;2334;48.710;9.622;2024-01-10T12:08:08;33.10;;;13.67;;
4642;SDS011;2334;48.710;9.622;2024-01-10T12:10:38;29.10;;;13.80;;
4642;SDS011;2334;48.710;9.622;2024-01-10T12:13:05;28.00;;;12.77;;
4642;SDS011;2334;48.710;9.622;2024-01-10T12:15:37;32.37;;;13.53;;
4642;SDS011;2334;48.710;9.622;2024-01-10T12:18:05;33.73;;;13.33;;
4642;SDS011;2334;48.710;9.622;2024-01-10T12:20:32;30.47;;;13.30;;
4642;SDS011;2334;48.710;9.622;2024-01-10T12:23:00;31.50;;;12.93;;
4642;SDS011;2334;48.710;9.622;2024-01-10T12:25:28;31.67;;;12.57;;
4642;SDS011;2334;48.710;9.622;2024-01-10T12:27:54;33.47;;;12.73;;
4642;SDS011;2334;48.710;9.622;2024-01-10T12:30:27;29.97;;;14.20;;
4642;SDS011;2334;48.710;9.622;2024-01-10T12:32:54;33.73;;;13.47;;
4642;SDS011;2334;48.710;9.622;2024-01-10T12:35:22;41.33;;;16.10;;
4642;SDS011;2334;48.710;9.622;2024-01-10T12:37:55;25.90;;;13.53;;
4642;SDS011;2334;48.710;9.622;2024-01-10T12:40:22;30.00;;;13.40;;
4642;SDS011;2334;48.710;9.622;2024-01-10T12:43:01;33.50;;;13.17;;
4642;SDS011;2334;48.710;9.622;2024-01-10T12:45:28;29.27;;;14.47;;
4642;SDS011;2334;48.710;9.622;2024-01-10T12:47:55;34.63;;;13.63;;
4642;SDS011;2334;48.710;9.622;2024-01-10T12:50:24;29.27;;;13.93;;
4642;SDS011;2334;48.710;9.622;2024-01-10T12:52:51;36.00;;;15.37;;
4642;SDS011;2334;48.710;9.622;2024-01-10T12:55:18;29.40;;;11.30;;
4642;SDS011;2334;48.710;9.622;2024-01-10T12:57:45;26.73;;;13.80;;
4642;SDS011;2334;48.710;9.622;2024-01-10T13:00:12;29.40;;;13.37;;
4642;SDS011;2334;48.710;9.622;2024-01-10T13:02:40;34.70;;;13.50;;
4642;SDS011;2334;48.710;9.622;2024-01-10T13:05:07;28.83;;;13.50;;
4642;SDS011;2334;48.710;9.622;2024-01-10T13:07:36;32.03;;;13.37;;
4642;SDS011;2334;48.710;9.622;2024-01-10T13:10:04;38.23;;;13.70;;
4642;SDS011;2334;48.710;9.622;2024-01-10T13:12:31;27.60;;;12.43;;
4642;SDS011;2334;48.710;9.622;2024-01-10T13:14:58;29.10;;;13.70;;
4642;SDS011;2334;48.710;9.622;2024-01-10T13:17:24;28.10;;;12.00;;
4642;SDS011;2334;48.710;9.622;2024-01-10T13:19:51;33.57;;;13.60;;
4642;SDS011;2334;48.710;9.622;2024-01-10T13:22:19;35.60;;;13.47;;
4642;SDS011;2334;48.710;9.622;2024-01-10T13:24:47;34.37;;;14.83;;
4642;SDS011;2334;48.710;9.622;2024-01-10T13:27:14;29.07;;;14.27;;
4642;SDS011;2334;48.710;9.622;2024-01-10T13:29:41;29.47;;;13.93;;
4642;SDS011;2334;48.710;9.622;2024-01-10T13:32:08;32.23;;;12.60;;
4642;SDS011;2334;48.710;9.622;2024-01-10T13:34:35;34.03;;;13.87;;
4642;SDS011;2334;48.710;9.622;2024-01-10T13:37:02;29.90;;;12.53;;
4642;SDS011;2334;48.710;9.622;2024-01-10T13:39:29;33.90;;;12.80;;
4642;SDS011;2334;48.710;9.622;2024-01-10T13:41:58;28.67;;;11.90;;
4642;SDS011;2334;48.710;9.622;2024-01-10T13:44:25;30.27;;;11.80;;
4642;SDS011;2334;48.710;9.622;2024-01-10T13:46:51;29.03;;;12.87;;
4642;SDS011;2334;48.710;9.622;2024-01-10T13:49:18;36.07;;;13.67;;
4642;SDS011;2334;48.710;9.622;2024-01-10T13:51:45;27.27;;;12.40;;
4642;SDS011;2334;48.710;9.622;2024-01-10T13:54:12;28.03;;;14.03;;
4642;SDS011;2334;48.710;9.622;2024-01-10T13:56:39;32.40;;;13.80;;
4642;SDS011;2334;48.710;9.622;2024-01-10T13:59:08;24.10;;;9.97;;
4642;SDS011;2334;48.710;9.622;2024-01-10T14:01:37;31.00;;;13.00;;
4642;SDS011;2334;48.710;9.622;2024-01-10T14:04:06;25.67;;;13.20;;
4642;SDS011;2334;48.710;9.622;2024-01-10T14:06:33;30.07;;;12.50;;
4642;SDS011;2334;48.710;9.622;2024-01-10T14:09:00;26.53;;;13.03;;
4642;SDS011;2334;48.710;9.622;2024-01-10T14:11:27;34.00;;;13.17;;
4642;SDS011;2334;48.710;9.622;2024-01-10T14:13:54;32.37;;;12.47;;
4642;SDS011;2334;48.710;9.622;2024-01-10T14:16:22;27.53;;;11.40;;
4642;SDS011;2334;48.710;9.622;2024-01-10T14:18:49;25.10;;;11.93;;
4642;SDS011;2334;48.710;9.622;2024-01-10T14:21:16;34.40;;;12.77;;
4642;SDS011;2334;48.710;9.622;2024-01-10T14:23:44;29.67;;;12.83;;
4642;SDS011;2334;48.710;9.622;2024-01-10T14:26:12;32.47;;;12.10;;
4642;SDS011;2334;48.710;9.622;2024-01-10T14:28:40;26.60;;;12.60;;
4642;SDS011;2334;48.710;9.622;2024-01-10T14:31:06;25.40;;;10.63;;
4642;SDS011;2334;48.710;9.622;2024-01-10T14:33:36;32.97;;;11.30;;
4642;SDS011;2334;48.710;9.622;2024-01-10T14:36:03;24.70;;;11.53;;
4642;SDS011;2334;48.710;9.622;2024-01-10T14:38:30;25.37;;;11.87;;
4642;SDS011;2334;48.710;9.622;2024-01-10T14:40:57;26.10;;;10.33;;
4642;SDS011;2334;48.710;9.622;2024-01-10T14:43:25;25.27;;;10.97;;
4642;SDS011;2334;48.710;9.622;2024-01-10T14:45:52;28.10;;;11.47;;
4642;SDS011;2334;48.710;9.622;2024-01-10T14:48:19;29.33;;;12.43;;
4642;SDS011;2334;48.710;9.622;2024-01-10T14:50:47;32.53;;;12.50;;
4642;SDS011;2334;48.710;9.622;2024-01-10T14:53:14;24.97;;;12.47;;
4642;SDS011;2334;48.710;9.622;2024-01-10T14:55:41;30.30;;;13.90;;
4642;SDS011;2334;48.710;9.622;2024-01-10T14:58:08;41.10;;;12.67;;
4642;SDS011;2334;48.710;9.622;2024-01-10T15:00:35;33.47;;;13.23;;
4642;SDS011;2334;48.710;9.622;2024-01-10T15:03:02;34.30;;;15.50;;
4642;SDS011;2334;48.710;9.622;2024-01-10T15:05:29;29.00;;;13.13;;
4642;SDS011;2334;48.710;9.622;2024-01-10T15:07:58;31.50;;;13.43;;